Time;durP1;ratioP1;P1;durP2;ratioP2;P2;SDS_P1;SDS_P2;PMS_P1;PMS_P2;Temp;Humidity;BMP_temperature;BMP_pressure;BME280_temperature;BME280_humidity;BME280_pressure;Samples;Min_cycle;Max_cycle;Signal;HPM_P1;HPM_P2
2023/07/30 00:00:02;;;;;;;;;;;19.90;95.00;;;;;;5083962;28;19912;-67
2023/07/30 00:02:28;;;;;;;;;;;19.90;95.00;;;;;;5091383;28;19927;-67
2023/07/30 00:04:54;;;;;;;;;;;19.90;94.80;;;;;;5104275;28;19916;-67
2023/07/30 00:07:19;;;;;;;;;;;19.90;95.10;;;;;;5091624;28;19920;-67
2023/07/30 00:09:45;;;;;;;;;;;19.80;94.90;;;;;;5091333;28;19912;-67
2023/07/30 00:12:10;;;;;;;;;;;19.80;94.90;;;;;;5090484;28;19916;-67
2023/07/30 00:14:36;;;;;;;;;;;19.70;94.80;;;;;;5091086;28;19919;-67
2023/07/30 00:17:02;;;;;;;;;;;19.70;95.00;;;;;;5090426;28;19916;-67
2023/07/30 00:19:27;;;;;;;;;;;19.70;95.00;;;;;;5091237;28;19912;-67
2023/07/30 00:21:53;;;;;;;;;;;19.70;94.90;;;;;;5090332;28;19912;-67
2023/07/30 00:24:18;;;;;;;;;;;19.60;94.90;;;;;;5089867;28;19935;-67
2023/07/30 00:26:44;;;;;;;;;;;19.60;95.10;;;;;;5090399;28;19919;-67
2023/07/30 00:29:09;;;;;;;;;;;19.60;95.00;;;;;;5090589;28;20380;-67
2023/07/30 00:31:35;;;;;;;;;;;19.60;95.00;;;;;;5092273;28;19959;-67
2023/07/30 00:34:00;;;;;;;;;;;19.50;95.00;;;;;;5088032;28;20276;-67
2023/07/30 00:36:26;;;;;;;;;;;19.50;94.90;;;;;;5089948;28;20350;-67
2023/07/30 00:38:51;;;;;;;;;;;19.50;94.90;;;;;;5090485;28;19939;-67
2023/07/30 00:41:17;;;;;;;;;;;19.50;95.00;;;;;;5090537;28;19912;-68
2023/07/30 00:43:42;;;;;;;;;;;19.40;95.00;;;;;;5093049;28;19919;-67
2023/07/30 00:46:08;;;;;;;;;;;19.40;95.10;;;;;;5110639;28;19916;-67
2023/07/30 00:48:33;;;;;;;;;;;19.40;95.20;;;;;;5103973;28;19912;-67
2023/07/30 00:50:59;;;;;;;;;;;19.40;95.10;;;;;;5102780;28;20012;-67
2023/07/30 00:53:26;;;;;;;;;;;19.30;95.10;;;;;;5090184;28;19919;-67
2023/07/30 00:55:51;;;;;;;;;;;19.30;95.20;;;;;;5089830;28;20453;-67
2023/07/30 00:58:18;;;;;;;;;;;19.30;95.20;;;;;;5098507;28;19916;-67
2023/07/30 01:00:44;;;;;;;;;;;19.30;95.20;;;;;;5088002;28;19966;-67
2023/07/30 01:03:09;;;;;;;;;;;19.20;95.20;;;;;;5089458;28;19947;-67
2023/07/30 01:05:35;;;;;;;;;;;19.30;95.30;;;;;;5089664;28;20404;-67
2023/07/30 01:08:01;;;;;;;;;;;19.20;95.20;;;;;;5089915;28;19919;-67
2023/07/30 01:10:27;;;;;;;;;;;19.20;95.20;;;;;;5090077;28;19962;-67
2023/07/30 01:12:53;;;;;;;;;;;19.10;95.20;;;;;;5090216;28;19919;-67
2023/07/30 01:15:18;;;;;;;;;;;19.10;95.30;;;;;;5072861;28;19920;-67
2023/07/30 01:17:44;;;;;;;;;;;19.10;95.30;;;;;;5089424;28;19998;-67
2023/07/30 01:20:10;;;;;;;;;;;19.10;95.30;;;;;;5089450;28;19916;-67
2023/07/30 01:22:36;;;;;;;;;;;19.00;95.30;;;;;;5089573;28;19915;-67
2023/07/30 01:25:01;;;;;;;;;;;19.00;95.30;;;;;;5089602;28;19916;-67
2023/07/30 01:27:31;;;;;;;;;;;19.00;95.30;;;;;;5105950;28;19928;-67
2023/07/30 01:30:02;;;;;;;;;;;19.00;95.10;;;;;;5090002;28;19908;-67
2023/07/30 01:32:28;;;;;;;;;;;19.00;95.20;;;;;;5081471;28;19916;-67
2023/07/30 01:34:54;;;;;;;;;;;19.00;95.20;;;;;;5089730;28;19913;-67
2023/07/30 01:37:20;;;;;;;;;;;18.90;95.20;;;;;;5088213;28;19980;-67
2023/07/30 01:39:47;;;;;;;;;;;18.90;95.30;;;;;;5095573;28;20356;-67
2023/07/30 01:42:13;;;;;;;;;;;18.80;95.30;;;;;;5091261;28;20426;-67
2023/07/30 01:44:38;;;;;;;;;;;18.80;95.40;;;;;;5089598;28;19916;-67
2023/07/30 01:47:04;;;;;;;;;;;18.80;95.30;;;;;;5089021;28;19912;-67
2023/07/30 01:49:29;;;;;;;;;;;18.80;95.60;;;;;;5088942;28;20315;-67
2023/07/30 01:51:55;;;;;;;;;;;18.80;95.20;;;;;;5088871;28;20627;-67
2023/07/30 01:54:20;;;;;;;;;;;18.80;95.40;;;;;;5093236;28;19916;-67
2023/07/30 01:56:46;;;;;;;;;;;18.70;95.40;;;;;;5088697;28;20007;-67
2023/07/30 01:59:11;;;;;;;;;;;18.70;95.50;;;;;;5068853;28;19934;-67
2023/07/30 02:01:37;;;;;;;;;;;18.70;95.40;;;;;;5082729;28;19916;-67
2023/07/30 02:04:02;;;;;;;;;;;18.70;95.50;;;;;;5070323;28;20053;-67
2023/07/30 02:06:28;;;;;;;;;;;18.70;95.50;;;;;;5088356;28;20428;-67
2023/07/30 02:08:53;;;;;;;;;;;18.60;95.40;;;;;;5092295;28;19963;-67
2023/07/30 02:11:19;;;;;;;;;;;18.60;95.40;;;;;;5087778;28;19952;-67
2023/07/30 02:13:44;;;;;;;;;;;18.60;95.50;;;;;;5088381;28;19953;-67
2023/07/30 02:16:10;;;;;;;;;;;18.60;95.60;;;;;;5088464;28;19916;-67
2023/07/30 02:18:35;;;;;;;;;;;18.60;95.50;;;;;;5088393;28;20345;-67
2023/07/30 02:21:01;;;;;;;;;;;18.50;95.40;;;;;;5094170;28;20008;-67
2023/07/30 02:23:26;;;;;;;;;;;18.50;95.50;;;;;;5099515;28;19912;-67
2023/07/30 02:25:52;;;;;;;;;;;18.50;95.50;;;;;;5069180;28;20675;-67
2023/07/30 02:28:17;;;;;;;;;;;18.50;95.40;;;;;;5088168;28;19916;-67
2023/07/30 02:30:43;;;;;;;;;;;18.50;95.40;;;;;;5087971;28;19916;-67
2023/07/30 02:33:08;;;;;;;;;;;18.40;95.50;;;;;;5078739;28;19950;-67
2023/07/30 02:35:34;;;;;;;;;;;18.40;95.60;;;;;;5095099;28;20295;-67
2023/07/30 02:37:59;;;;;;;;;;;18.40;95.60;;;;;;5095460;28;20486;-67
2023/07/30 02:40:25;;;;;;;;;;;18.40;95.60;;;;;;5087585;28;19912;-67
2023/07/30 02:42:50;;;;;;;;;;;18.30;95.60;;;;;;5088095;28;19958;-67
2023/07/30 02:45:16;;;;;;;;;;;18.30;95.70;;;;;;5088405;28;20293;-67
2023/07/30 02:47:42;;;;;;;;;;;18.30;95.50;;;;;;5087756;28;19974;-67
2023/07/30 02:50:08;;;;;;;;;;;18.30;95.60;;;;;;5088463;28;20565;-67
2023/07/30 02:52:33;;;;;;;;;;;18.30;95.40;;;;;;5093605;28;19978;-67
2023/07/30 02:54:59;;;;;;;;;;;18.30;95.50;;;;;;5087136;28;19916;-67
2023/07/30 02:57:24;;;;;;;;;;;18.20;95.50;;;;;;5094229;28;19961;-68
2023/07/30 02:59:50;;;;;;;;;;;18.20;95.40;;;;;;5088108;28;19912;-67
2023/07/30 03:02:15;;;;;;;;;;;18.20;95.70;;;;;;5087452;28;20547;-67
2023/07/30 03:04:41;;;;;;;;;;;18.20;95.60;;;;;;5069688;28;19987;-67
2023/07/30 03:07:06;;;;;;;;;;;18.10;95.50;;;;;;5087342;28;20429;-67
2023/07/30 03:09:32;;;;;;;;;;;18.10;95.50;;;;;;5088900;28;19956;-67
2023/07/30 03:11:58;;;;;;;;;;;18.10;95.60;;;;;;5087777;28;20299;-67
2023/07/30 03:14:24;;;;;;;;;;;18.10;95.60;;;;;;5069464;28;19916;-68
2023/07/30 03:16:49;;;;;;;;;;;18.10;95.50;;;;;;5087156;28;19939;-67
2023/07/30 03:19:15;;;;;;;;;;;18.00;95.50;;;;;;5087512;28;19912;-67
2023/07/30 03:21:41;;;;;;;;;;;18.00;95.50;;;;;;5087583;28;19912;-67
2023/07/30 03:24:06;;;;;;;;;;;18.00;95.60;;;;;;5087215;28;19918;-67
2023/07/30 03:26:32;;;;;;;;;;;18.00;95.60;;;;;;5069556;28;19912;-67
2023/07/30 03:28:57;;;;;;;;;;;18.00;95.70;;;;;;5087224;28;19919;-67
2023/07/30 03:31:23;;;;;;;;;;;17.90;95.80;;;;;;5067387;28;19916;-67
2023/07/30 03:33:48;;;;;;;;;;;17.90;95.60;;;;;;5077061;28;19918;-67
2023/07/30 03:36:14;;;;;;;;;;;17.90;95.70;;;;;;5086596;28;19951;-67
2023/07/30 03:38:40;;;;;;;;;;;17.90;95.50;;;;;;5086994;28;19912;-67
2023/07/30 03:41:06;;;;;;;;;;;17.90;95.90;;;;;;5087148;28;19915;-67
2023/07/30 03:43:35;;;;;;;;;;;17.90;95.70;;;;;;5086981;28;19908;-67
2023/07/30 03:46:00;;;;;;;;;;;17.90;95.60;;;;;;5087295;28;19912;-67
2023/07/30 03:48:26;;;;;;;;;;;17.80;95.60;;;;;;5086886;28;19909;-67
2023/07/30 03:50:52;;;;;;;;;;;17.80;95.70;;;;;;5096026;28;19912;-68
2023/07/30 03:53:18;;;;;;;;;;;17.80;95.60;;;;;;5087061;28;19980;-67
2023/07/30 03:55:43;;;;;;;;;;;17.80;95.70;;;;;;5087220;28;20294;-67
2023/07/30 03:58:09;;;;;;;;;;;17.80;95.70;;;;;;5087028;28;20709;-67
2023/07/30 04:00:34;;;;;;;;;;;17.80;95.70;;;;;;5079878;28;19972;-67
2023/07/30 04:03:00;;;;;;;;;;;17.70;95.70;;;;;;5086239;28;19912;-67
2023/07/30 04:05:25;;;;;;;;;;;17.70;95.70;;;;;;5080749;28;21252;-67
2023/07/30 04:07:51;;;;;;;;;;;17.70;95.80;;;;;;5076514;28;19965;-67
2023/07/30 04:10:16;;;;;;;;;;;17.70;95.70;;;;;;5086900;28;19947;-67
2023/07/30 04:12:41;;;;;;;;;;;17.70;95.80;;;;;;5087021;28;19912;-67
2023/07/30 04:15:07;;;;;;;;;;;17.70;95.80;;;;;;5086935;28;20284;-67
2023/07/30 04:17:34;;;;;;;;;;;17.70;95.80;;;;;;5087372;28;19947;-67
2023/07/30 04:19:59;;;;;;;;;;;17.70;95.70;;;;;;5086736;28;19911;-67
2023/07/30 04:22:25;;;;;;;;;;;17.70;95.70;;;;;;5087043;28;19912;-67
2023/07/30 04:24:50;;;;;;;;;;;17.60;95.60;;;;;;5082220;28;20501;-67
2023/07/30 04:27:15;;;;;;;;;;;17.60;95.40;;;;;;5066791;28;19916;-67
2023/07/30 04:29:41;;;;;;;;;;;17.60;95.50;;;;;;5082304;28;19966;-67
2023/07/30 04:32:07;;;;;;;;;;;17.60;95.60;;;;;;5081383;28;20366;-67
2023/07/30 04:34:32;;;;;;;;;;;17.60;95.70;;;;;;5081141;28;19912;-67
2023/07/30 04:36:58;;;;;;;;;;;17.60;95.70;;;;;;5089990;28;19924;-67
2023/07/30 04:39:23;;;;;;;;;;;17.60;95.70;;;;;;5090416;28;19912;-67
2023/07/30 04:41:49;;;;;;;;;;;17.60;95.80;;;;;;5090549;28;19920;-67
2023/07/30 04:44:14;;;;;;;;;;;17.60;95.70;;;;;;5090180;28;19973;-67
2023/07/30 04:46:39;;;;;;;;;;;17.60;95.70;;;;;;5104268;28;20642;-67
2023/07/30 04:49:05;;;;;;;;;;;17.60;95.60;;;;;;5082527;28;19916;-67
2023/07/30 04:51:30;;;;;;;;;;;17.60;95.70;;;;;;5092430;28;19912;-67
2023/07/30 04:53:56;;;;;;;;;;;17.60;95.70;;;;;;5071940;28;20380;-67
2023/07/30 04:56:21;;;;;;;;;;;17.60;95.70;;;;;;5090037;28;19920;-67
2023/07/30 04:58:47;;;;;;;;;;;17.60;95.70;;;;;;5090119;28;19916;-67
2023/07/30 05:01:12;;;;;;;;;;;17.60;95.60;;;;;;5083701;28;20710;-67
2023/07/30 05:03:38;;;;;;;;;;;17.60;95.90;;;;;;5071193;28;19916;-67
2023/07/30 05:06:03;;;;;;;;;;;17.60;95.50;;;;;;5089838;28;19916;-67
2023/07/30 05:08:29;;;;;;;;;;;17.70;95.60;;;;;;5089206;28;20006;-67
2023/07/30 05:10:54;;;;;;;;;;;17.70;95.50;;;;;;5089994;28;19919;-67
2023/07/30 05:13:20;;;;;;;;;;;17.70;95.50;;;;;;5090110;28;20713;-67
2023/07/30 05:15:45;;;;;;;;;;;17.70;95.40;;;;;;5071456;28;19963;-67
2023/07/30 05:18:11;;;;;;;;;;;17.70;95.40;;;;;;5089238;28;19912;-67
2023/07/30 05:20:36;;;;;;;;;;;17.70;95.60;;;;;;5089873;28;19965;-67
2023/07/30 05:23:02;;;;;;;;;;;17.70;95.50;;;;;;5071503;28;19969;-67
2023/07/30 05:25:28;;;;;;;;;;;17.70;95.50;;;;;;5088728;28;19977;-67
2023/07/30 05:27:55;;;;;;;;;;;17.70;95.50;;;;;;5099132;28;20553;-67
2023/07/30 05:30:20;;;;;;;;;;;17.70;95.40;;;;;;5090923;28;19912;-67
2023/07/30 05:32:46;;;;;;;;;;;17.70;95.50;;;;;;5076702;28;20362;-67
2023/07/30 05:35:11;;;;;;;;;;;17.80;95.60;;;;;;5086516;28;20000;-67
2023/07/30 05:37:37;;;;;;;;;;;17.70;95.50;;;;;;5088490;28;19908;-67
2023/07/30 05:40:03;;;;;;;;;;;17.70;95.30;;;;;;5089062;28;20349;-66
2023/07/30 05:42:28;;;;;;;;;;;17.80;95.40;;;;;;5104726;28;19926;-67
2023/07/30 05:44:54;;;;;;;;;;;17.80;95.40;;;;;;5095791;28;19916;-67
2023/07/30 05:47:19;;;;;;;;;;;17.80;95.40;;;;;;5107509;28;19915;-67
2023/07/30 05:49:45;;;;;;;;;;;17.80;95.50;;;;;;5096071;28;20430;-67
2023/07/30 05:52:10;;;;;;;;;;;17.80;95.40;;;;;;5089675;28;19916;-67
2023/07/30 05:54:36;;;;;;;;;;;17.80;95.40;;;;;;5088877;28;19918;-66
2023/07/30 05:57:01;;;;;;;;;;;17.80;95.70;;;;;;5089015;28;20234;-67
2023/07/30 05:59:27;;;;;;;;;;;17.80;95.40;;;;;;5085138;28;19915;-67
2023/07/30 06:01:52;;;;;;;;;;;17.80;95.40;;;;;;5084953;28;20272;-67
2023/07/30 06:04:18;;;;;;;;;;;17.90;95.40;;;;;;5089280;28;19912;-67
2023/07/30 06:06:43;;;;;;;;;;;17.80;95.40;;;;;;5088638;28;19923;-67
2023/07/30 06:09:09;;;;;;;;;;;17.90;95.40;;;;;;5088678;28;20612;-67
2023/07/30 06:11:34;;;;;;;;;;;17.80;95.40;;;;;;5090033;28;20026;-67
2023/07/30 06:14:00;;;;;;;;;;;17.90;95.30;;;;;;5102574;28;20377;-67
2023/07/30 06:16:25;;;;;;;;;;;17.90;95.40;;;;;;5088502;28;19912;-66
2023/07/30 06:18:51;;;;;;;;;;;17.90;95.40;;;;;;5088489;28;20230;-67
2023/07/30 06:21:16;;;;;;;;;;;17.90;95.30;;;;;;5088565;28;19919;-67
2023/07/30 06:23:42;;;;;;;;;;;17.90;95.30;;;;;;5087053;28;19923;-66
2023/07/30 06:26:07;;;;;;;;;;;17.90;95.40;;;;;;5094446;28;19928;-67
2023/07/30 06:28:33;;;;;;;;;;;17.90;95.40;;;;;;5089988;28;19912;-66
2023/07/30 06:31:02;;;;;;;;;;;17.90;95.40;;;;;;5105544;28;19912;-67
2023/07/30 06:33:27;;;;;;;;;;;17.90;95.30;;;;;;5087957;28;20521;-67
2023/07/30 06:35:53;;;;;;;;;;;17.90;95.30;;;;;;5088374;28;19942;-66
2023/07/30 06:38:18;;;;;;;;;;;17.90;95.30;;;;;;5087912;28;19995;-66
2023/07/30 06:40:44;;;;;;;;;;;17.90;95.30;;;;;;5099058;28;20379;-66
2023/07/30 06:43:09;;;;;;;;;;;18.00;95.30;;;;;;5088201;28;19919;-67
2023/07/30 06:45:35;;;;;;;;;;;17.90;95.30;;;;;;5087946;28;19970;-66
2023/07/30 06:48:00;;;;;;;;;;;17.90;95.30;;;;;;5087847;28;20276;-67
2023/07/30 06:50:26;;;;;;;;;;;17.90;95.20;;;;;;5104792;28;20368;-66
2023/07/30 06:52:51;;;;;;;;;;;17.90;95.20;;;;;;5089449;28;19912;-67
2023/07/30 06:55:17;;;;;;;;;;;17.90;95.20;;;;;;5089480;28;19916;-67
2023/07/30 06:57:42;;;;;;;;;;;17.90;95.30;;;;;;5087737;28;19916;-67
2023/07/30 07:00:08;;;;;;;;;;;17.90;95.30;;;;;;5080496;28;19990;-67
2023/07/30 07:02:33;;;;;;;;;;;17.90;95.20;;;;;;5087316;28;19912;-67
2023/07/30 07:04:59;;;;;;;;;;;17.90;95.20;;;;;;5087814;28;19919;-66
2023/07/30 07:07:25;;;;;;;;;;;17.90;95.20;;;;;;5103789;28;19977;-67
2023/07/30 07:09:50;;;;;;;;;;;17.90;95.20;;;;;;5096592;28;20356;-67
2023/07/30 07:12:16;;;;;;;;;;;17.90;95.30;;;;;;5087696;28;19915;-67
2023/07/30 07:14:42;;;;;;;;;;;17.90;95.30;;;;;;5087968;28;19998;-66
2023/07/30 07:17:08;;;;;;;;;;;17.90;95.20;;;;;;5087303;28;19958;-66
2023/07/30 07:19:36;;;;;;;;;;;17.90;95.20;;;;;;5070038;28;20328;-67
2023/07/30 07:22:03;;;;;;;;;;;17.90;95.20;;;;;;5096562;28;19970;-67
2023/07/30 07:24:29;;;;;;;;;;;17.90;95.20;;;;;;5086490;28;19924;-67
2023/07/30 07:26:54;;;;;;;;;;;17.90;95.20;;;;;;5087356;28;19919;-68
2023/07/30 07:29:20;;;;;;;;;;;17.90;95.20;;;;;;5087332;28;20421;-67
2023/07/30 07:31:45;;;;;;;;;;;18.00;95.20;;;;;;5087200;28;19999;-67
2023/07/30 07:34:11;;;;;;;;;;;17.90;95.20;;;;;;5087572;28;20218;-67
2023/07/30 07:36:37;;;;;;;;;;;18.00;95.20;;;;;;5095217;28;19927;-67
2023/07/30 07:39:03;;;;;;;;;;;17.90;95.10;;;;;;5086810;28;19955;-67
2023/07/30 07:41:28;;;;;;;;;;;18.00;95.30;;;;;;5086824;28;20434;-67
2023/07/30 07:43:54;;;;;;;;;;;18.00;95.20;;;;;;5086782;28;20026;-67
2023/07/30 07:46:20;;;;;;;;;;;18.00;95.20;;;;;;5068836;28;19965;-67
2023/07/30 07:48:45;;;;;;;;;;;18.00;95.20;;;;;;5086427;28;19947;-67
2023/07/30 07:51:11;;;;;;;;;;;17.90;95.20;;;;;;5102687;28;20006;-68
2023/07/30 07:53:37;;;;;;;;;;;18.00;95.20;;;;;;5086413;28;20288;-69
2023/07/30 07:56:03;;;;;;;;;;;18.00;95.20;;;;;;5068405;28;20327;-67
2023/07/30 07:58:28;;;;;;;;;;;18.00;95.10;;;;;;5094951;28;19916;-66
2023/07/30 08:00:55;;;;;;;;;;;18.00;95.20;;;;;;5087605;28;19935;-66
2023/07/30 08:03:21;;;;;;;;;;;18.00;95.10;;;;;;5086545;28;19951;-66
2023/07/30 08:05:46;;;;;;;;;;;18.10;95.10;;;;;;5091644;28;19963;-66
2023/07/30 08:08:12;;;;;;;;;;;18.00;95.10;;;;;;5086627;28;19919;-66
2023/07/30 08:10:43;;;;;;;;;;;18.00;95.20;;;;;;5088485;28;19923;-66
2023/07/30 08:13:09;;;;;;;;;;;18.10;95.20;;;;;;5089938;28;19969;-67
2023/07/30 08:15:35;;;;;;;;;;;18.10;95.20;;;;;;5090620;28;19923;-66
2023/07/30 08:18:00;;;;;;;;;;;18.10;95.10;;;;;;5090804;28;19909;-67
2023/07/30 08:20:26;;;;;;;;;;;18.10;95.10;;;;;;5092756;28;20664;-67
2023/07/30 08:22:51;;;;;;;;;;;18.20;95.00;;;;;;5090452;28;20015;-67
2023/07/30 08:25:17;;;;;;;;;;;18.20;95.00;;;;;;5090193;28;20683;-66
2023/07/30 08:27:42;;;;;;;;;;;18.20;95.00;;;;;;5090823;28;19920;-66
2023/07/30 08:30:08;;;;;;;;;;;18.20;95.00;;;;;;5090773;28;19968;-66
2023/07/30 08:32:33;;;;;;;;;;;18.30;94.90;;;;;;5089063;28;19916;-66
2023/07/30 08:34:59;;;;;;;;;;;18.40;94.90;;;;;;5081440;28;19952;-66
2023/07/30 08:37:24;;;;;;;;;;;18.30;94.90;;;;;;5085391;28;19916;-66
2023/07/30 08:39:52;;;;;;;;;;;18.40;94.90;;;;;;5091398;28;19937;-66
2023/07/30 08:42:17;;;;;;;;;;;18.40;94.90;;;;;;5091192;28;19908;-66
2023/07/30 08:44:43;;;;;;;;;;;18.40;95.00;;;;;;5088379;28;20280;-66
2023/07/30 08:47:08;;;;;;;;;;;18.40;94.90;;;;;;5094990;28;19916;-66
2023/07/30 08:49:34;;;;;;;;;;;18.50;94.90;;;;;;5091553;28;19976;-66
2023/07/30 08:52:00;;;;;;;;;;;18.50;94.80;;;;;;5091742;28;19919;-66
2023/07/30 08:54:27;;;;;;;;;;;18.60;94.80;;;;;;5072600;28;20289;-67
2023/07/30 08:56:52;;;;;;;;;;;18.60;94.70;;;;;;5091747;28;19916;-67
2023/07/30 08:59:19;;;;;;;;;;;18.70;95.00;;;;;;5088278;28;20424;-67
2023/07/30 09:01:46;;;;;;;;;;;18.80;94.80;;;;;;5064635;28;20015;-66
2023/07/30 09:04:14;;;;;;;;;;;18.80;94.90;;;;;;5090161;28;19934;-66
2023/07/30 09:06:40;;;;;;;;;;;18.90;94.60;;;;;;5090493;28;19919;-67
2023/07/30 09:09:06;;;;;;;;;;;19.00;94.50;;;;;;5072453;28;20253;-66
2023/07/30 09:11:32;;;;;;;;;;;19.10;94.50;;;;;;5103006;28;20424;-66
2023/07/30 09:13:57;;;;;;;;;;;19.10;94.60;;;;;;5100965;28;20237;-67
2023/07/30 09:16:26;;;;;;;;;;;19.10;94.50;;;;;;5089679;28;19912;-67
2023/07/30 09:18:53;;;;;;;;;;;19.10;94.50;;;;;;5090997;28;19908;-66
2023/07/30 09:21:19;;;;;;;;;;;19.10;94.50;;;;;;5089776;28;19927;-67
2023/07/30 09:23:45;;;;;;;;;;;19.20;94.60;;;;;;5090450;28;19920;-67
2023/07/30 09:26:12;;;;;;;;;;;19.20;94.40;;;;;;5089976;28;19916;-66
2023/07/30 09:28:37;;;;;;;;;;;19.30;94.40;;;;;;5090550;28;19964;-67
2023/07/30 09:31:03;;;;;;;;;;;19.30;94.30;;;;;;5089643;28;20003;-67
2023/07/30 09:33:30;;;;;;;;;;;19.40;94.20;;;;;;5101166;28;19919;-67
2023/07/30 09:35:56;;;;;;;;;;;19.40;94.10;;;;;;5090253;28;19969;-67
2023/07/30 09:38:21;;;;;;;;;;;19.30;94.20;;;;;;5094402;28;20011;-67
2023/07/30 09:40:50;;;;;;;;;;;19.40;94.10;;;;;;5088614;28;20003;-67
2023/07/30 09:43:15;;;;;;;;;;;19.40;94.00;;;;;;5084244;28;19912;-66
2023/07/30 09:45:44;;;;;;;;;;;19.40;93.90;;;;;;5081119;28;19912;-67
2023/07/30 09:48:09;;;;;;;;;;;19.50;93.90;;;;;;5088508;28;19915;-66
2023/07/30 09:50:36;;;;;;;;;;;19.50;93.80;;;;;;5088403;28;20316;-66
2023/07/30 09:53:02;;;;;;;;;;;19.60;93.90;;;;;;5087231;28;19916;-66
2023/07/30 09:55:27;;;;;;;;;;;19.60;93.70;;;;;;5087719;28;19912;-66
2023/07/30 09:57:53;;;;;;;;;;;19.70;93.60;;;;;;5088327;28;20002;-67
2023/07/30 10:00:19;;;;;;;;;;;19.80;93.60;;;;;;5086546;28;20064;-67
2023/07/30 10:02:49;;;;;;;;;;;19.80;93.50;;;;;;5082761;28;20257;-66
2023/07/30 10:05:15;;;;;;;;;;;19.80;93.20;;;;;;5080369;28;19912;-67
2023/07/30 10:07:44;;;;;;;;;;;19.80;93.40;;;;;;5077734;28;19919;-66
2023/07/30 10:10:10;;;;;;;;;;;19.80;93.40;;;;;;5087551;28;19912;-67
2023/07/30 10:12:35;;;;;;;;;;;19.80;93.30;;;;;;5087867;28;19949;-67
2023/07/30 10:15:01;;;;;;;;;;;19.90;93.20;;;;;;5087545;28;19908;-67
2023/07/30 10:17:28;;;;;;;;;;;20.00;93.00;;;;;;5087418;28;20005;-67
2023/07/30 10:19:54;;;;;;;;;;;20.10;92.90;;;;;;5087487;28;20365;-67
2023/07/30 10:22:24;;;;;;;;;;;20.10;92.80;;;;;;5098381;28;19933;-66
2023/07/30 10:25:00;;;;;;;;;;;20.30;92.70;;;;;;5096634;28;19920;-67
2023/07/30 10:27:27;;;;;;;;;;;20.40;92.40;;;;;;5087556;28;20364;-67
2023/07/30 10:30:08;;;;;;;;;;;20.30;92.80;;;;;;5087188;28;19908;-67
2023/07/30 10:32:53;;;;;;;;;;;20.30;92.60;;;;;;5077638;28;19958;-67
2023/07/30 10:35:50;;;;;;;;;;;20.50;92.90;;;;;;5084930;28;19916;-67
2023/07/30 10:38:17;;;;;;;;;;;20.40;92.50;;;;;;5041019;28;20008;-67
2023/07/30 10:41:01;;;;;;;;;;;20.50;92.60;;;;;;5086859;28;19927;-67
2023/07/30 10:43:28;;;;;;;;;;;20.50;92.40;;;;;;5087668;28;20392;-67
2023/07/30 10:45:53;;;;;;;;;;;20.60;92.40;;;;;;5086831;28;19916;-67
2023/07/30 10:48:29;;;;;;;;;;;20.70;92.40;;;;;;5087437;28;19919;-67
2023/07/30 10:50:54;;;;;;;;;;;20.70;92.40;;;;;;5087175;28;19912;-67
2023/07/30 10:53:19;;;;;;;;;;;20.70;91.80;;;;;;5086952;28;20288;-67
2023/07/30 10:55:45;;;;;;;;;;;20.70;92.40;;;;;;5093360;28;19969;-67
2023/07/30 10:58:11;;;;;;;;;;;20.60;91.80;;;;;;5107490;28;19960;-67
2023/07/30 11:00:37;;;;;;;;;;;20.60;92.40;;;;;;5091359;28;20055;-67
2023/07/30 11:03:03;;;;;;;;;;;20.50;92.40;;;;;;5084124;28;19912;-67
2023/07/30 11:05:29;;;;;;;;;;;20.50;92.30;;;;;;5086724;28;19912;-67
2023/07/30 11:07:56;;;;;;;;;;;20.50;91.90;;;;;;5086915;28;19916;-66
2023/07/30 11:10:21;;;;;;;;;;;20.50;92.40;;;;;;5090744;28;19977;-67
2023/07/30 11:12:49;;;;;;;;;;;20.60;92.40;;;;;;5100973;28;20550;-67
2023/07/30 11:15:14;;;;;;;;;;;20.80;92.20;;;;;;5100456;28;20375;-67
2023/07/30 11:17:40;;;;;;;;;;;20.80;92.10;;;;;;5086751;28;19916;-67
2023/07/30 11:20:07;;;;;;;;;;;20.90;91.90;;;;;;5087056;28;19947;-67
2023/07/30 11:22:33;;;;;;;;;;;20.90;92.20;;;;;;5086574;28;19916;-67
2023/07/30 11:24:58;;;;;;;;;;;21.00;92.00;;;;;;5085300;28;19973;-67
2023/07/30 11:27:24;;;;;;;;;;;21.00;91.40;;;;;;5086190;28;20443;-67
2023/07/30 11:29:56;;;;;;;;;;;21.00;91.70;;;;;;5086367;28;19923;-67
2023/07/30 11:32:25;;;;;;;;;;;21.10;91.60;;;;;;5094159;28;19911;-67
2023/07/30 11:34:51;;;;;;;;;;;21.10;91.70;;;;;;5094142;28;19912;-67
2023/07/30 11:37:16;;;;;;;;;;;21.10;91.60;;;;;;5085818;28;19920;-67
2023/07/30 11:39:42;;;;;;;;;;;21.20;91.70;;;;;;5086337;28;19922;-67
2023/07/30 11:42:07;;;;;;;;;;;21.20;91.50;;;;;;5094876;28;19916;-67
2023/07/30 11:44:35;;;;;;;;;;;21.30;91.30;;;;;;5108802;28;19923;-66
2023/07/30 11:47:01;;;;;;;;;;;21.30;91.10;;;;;;5090174;28;19908;-67
2023/07/30 11:49:27;;;;;;;;;;;21.30;90.80;;;;;;5090742;28;20395;-67
2023/07/30 11:52:03;;;;;;;;;;;21.30;91.20;;;;;;5099053;28;20261;-67
2023/07/30 11:54:31;;;;;;;;;;;21.30;91.00;;;;;;5078894;28;19918;-67
2023/07/30 11:56:56;;;;;;;;;;;21.40;90.80;;;;;;5089860;28;20030;-67
2023/07/30 11:59:22;;;;;;;;;;;21.40;91.00;;;;;;5102931;28;20401;-67
2023/07/30 12:01:48;;;;;;;;;;;21.50;90.80;;;;;;5088933;28;19916;-67
2023/07/30 12:04:13;;;;;;;;;;;21.50;90.50;;;;;;5071366;28;19994;-67
2023/07/30 12:06:42;;;;;;;;;;;21.60;90.80;;;;;;5088993;28;19919;-67
2023/07/30 12:09:12;;;;;;;;;;;21.70;90.60;;;;;;5091954;28;19971;-67
2023/07/30 12:11:44;;;;;;;;;;;21.90;90.50;;;;;;5089438;28;19920;-67
2023/07/30 12:14:09;;;;;;;;;;;21.90;90.50;;;;;;5090765;28;19951;-67
2023/07/30 12:16:35;;;;;;;;;;;21.90;90.30;;;;;;5098155;28;20383;-67
2023/07/30 12:19:00;;;;;;;;;;;21.90;90.10;;;;;;5111189;28;19923;-67
2023/07/30 12:21:26;;;;;;;;;;;22.00;90.50;;;;;;5095794;28;19915;-67
2023/07/30 12:23:51;;;;;;;;;;;22.10;90.30;;;;;;5090356;28;19998;-67
2023/07/30 12:26:17;;;;;;;;;;;22.10;89.70;;;;;;5095023;28;19922;-67
2023/07/30 12:28:42;;;;;;;;;;;22.20;89.80;;;;;;5110897;28;19938;-67
2023/07/30 12:31:08;;;;;;;;;;;22.20;89.10;;;;;;5098463;28;19916;-67
2023/07/30 12:33:33;;;;;;;;;;;22.20;89.20;;;;;;5089894;28;19955;-67
2023/07/30 12:35:59;;;;;;;;;;;22.30;89.10;;;;;;5091913;28;20373;-67
2023/07/30 12:38:24;;;;;;;;;;;22.20;88.50;;;;;;5109742;28;19912;-67
2023/07/30 12:40:50;;;;;;;;;;;22.20;88.70;;;;;;5101535;28;19908;-67
2023/07/30 12:43:18;;;;;;;;;;;22.20;89.50;;;;;;5089307;28;19920;-68
2023/07/30 12:45:44;;;;;;;;;;;22.30;88.80;;;;;;5088999;28;19912;-67
2023/07/30 12:48:09;;;;;;;;;;;22.40;89.60;;;;;;5068015;28;19921;-67
2023/07/30 12:50:35;;;;;;;;;;;22.50;88.60;;;;;;5074423;28;19908;-67
2023/07/30 12:53:00;;;;;;;;;;;22.60;88.50;;;;;;5087593;28;19935;-67
2023/07/30 12:55:26;;;;;;;;;;;22.70;89.20;;;;;;5088501;28;19912;-67
2023/07/30 12:57:51;;;;;;;;;;;22.70;88.60;;;;;;5105597;28;19923;-67
2023/07/30 13:00:17;;;;;;;;;;;22.70;88.20;;;;;;5089311;28;20019;-67
2023/07/30 13:02:43;;;;;;;;;;;22.70;89.10;;;;;;5088573;28;19923;-67
2023/07/30 13:05:08;;;;;;;;;;;22.70;88.50;;;;;;5090581;28;19916;-67
2023/07/30 13:07:34;;;;;;;;;;;22.70;88.10;;;;;;5088377;28;20325;-67
2023/07/30 13:10:07;;;;;;;;;;;22.70;87.70;;;;;;5088455;28;20408;-67
2023/07/30 13:12:32;;;;;;;;;;;22.70;88.40;;;;;;5086192;28;19912;-67
2023/07/30 13:14:58;;;;;;;;;;;22.70;85.50;;;;;;5089084;28;19916;-67
2023/07/30 13:17:24;;;;;;;;;;;22.70;87.50;;;;;;5103636;28;19927;-67
2023/07/30 13:19:49;;;;;;;;;;;22.80;84.20;;;;;;5109312;28;19911;-67
2023/07/30 13:22:15;;;;;;;;;;;22.90;87.40;;;;;;5079397;28;19965;-67
2023/07/30 13:24:40;;;;;;;;;;;22.80;86.70;;;;;;5077122;28;20008;-67
2023/07/30 13:27:06;;;;;;;;;;;22.80;85.70;;;;;;5100464;28;20292;-67
2023/07/30 13:29:31;;;;;;;;;;;22.80;85.90;;;;;;5109134;28;19911;-67
2023/07/30 13:31:57;;;;;;;;;;;22.90;85.00;;;;;;5074944;28;19937;-67
2023/07/30 13:34:22;;;;;;;;;;;22.90;83.50;;;;;;5077382;28;19993;-67
2023/07/30 13:36:48;;;;;;;;;;;23.10;85.90;;;;;;5079434;28;19924;-67
2023/07/30 13:39:13;;;;;;;;;;;23.20;85.00;;;;;;5107673;28;19915;-67
2023/07/30 13:41:39;;;;;;;;;;;23.30;84.00;;;;;;5088092;28;20019;-67
2023/07/30 13:44:04;;;;;;;;;;;23.40;84.60;;;;;;5088464;28;19912;-67
2023/07/30 13:46:30;;;;;;;;;;;23.50;83.60;;;;;;5087706;28;19908;-67
2023/07/30 13:48:55;;;;;;;;;;;23.60;85.00;;;;;;5088500;28;20381;-67
2023/07/30 13:51:21;;;;;;;;;;;23.70;83.70;;;;;;5092195;28;19912;-67
2023/07/30 13:53:46;;;;;;;;;;;23.70;84.00;;;;;;5087005;28;20533;-67
2023/07/30 13:56:12;;;;;;;;;;;23.70;82.10;;;;;;5087737;28;19916;-67
2023/07/30 13:58:39;;;;;;;;;;;23.80;83.40;;;;;;5087869;28;20265;-67
2023/07/30 14:01:06;;;;;;;;;;;23.80;82.30;;;;;;5073724;28;19916;-67
2023/07/30 14:03:31;;;;;;;;;;;23.90;83.60;;;;;;5087365;28;19908;-67
2023/07/30 14:05:57;;;;;;;;;;;23.80;83.70;;;;;;5087444;28;19908;-67
2023/07/30 14:08:23;;;;;;;;;;;23.80;83.50;;;;;;5085888;28;19908;-67